createdAt,value
2023-03-30T00:00:35.324Z,546.00
2023-03-30T00:01:35.282Z,539.00
2023-03-30T00:02:35.343Z,539.00
2023-03-30T00:03:35.404Z,539.00
2023-03-30T00:04:35.386Z,537.00
2023-03-30T00:05:35.299Z,537.00
2023-03-30T00:06:35.293Z,534.00
2023-03-30T00:07:35.269Z,533.00
2023-03-30T00:08:35.280Z,539.00
2023-03-30T00:09:35.209Z,541.00
2023-03-30T00:10:35.181Z,543.00
2023-03-30T00:11:35.151Z,543.00
2023-03-30T00:12:35.116Z,537.00
2023-03-30T00:13:35.114Z,541.00
2023-03-30T00:14:35.074Z,538.00
2023-03-30T00:15:35.058Z,536.00
2023-03-30T00:16:35.095Z,540.00
2023-03-30T00:17:35.027Z,539.00
2023-03-30T00:18:34.994Z,540.00
2023-03-30T00:19:34.951Z,540.00
2023-03-30T00:20:34.947Z,526.00
2023-03-30T00:21:34.914Z,535.00
2023-03-30T00:22:34.893Z,539.00
2023-03-30T00:23:34.887Z,542.00
2023-03-30T00:24:34.846Z,540.00
2023-03-30T00:25:34.823Z,544.00
2023-03-30T00:26:34.831Z,542.00
2023-03-30T00:27:34.846Z,536.00
2023-03-30T00:28:34.898Z,539.00
2023-03-30T00:29:34.891Z,536.00
2023-03-30T00:30:34.875Z,538.00
2023-03-30T00:31:34.892Z,540.00
2023-03-30T00:32:34.886Z,537.00
2023-03-30T00:33:45.646Z,537.00
2023-03-30T00:34:35.800Z,537.00
2023-03-30T00:35:34.808Z,538.00
2023-03-30T00:36:34.760Z,540.00
2023-03-30T00:37:34.727Z,542.00
2023-03-30T00:38:34.743Z,536.00
2023-03-30T00:39:34.691Z,538.00
2023-03-30T00:40:34.706Z,543.00
2023-03-30T00:41:34.646Z,536.00
2023-03-30T00:42:34.638Z,532.00
2023-03-30T00:43:34.622Z,521.00
2023-03-30T00:44:34.593Z,532.00
2023-03-30T00:45:34.575Z,527.00
2023-03-30T00:46:34.598Z,523.00
2023-03-30T00:47:34.546Z,522.00
2023-03-30T00:48:34.594Z,529.00
2023-03-30T00:49:34.466Z,530.00
2023-03-30T00:50:34.441Z,530.00
2023-03-30T00:51:34.410Z,532.00
2023-03-30T00:52:34.384Z,530.00
2023-03-30T00:53:34.361Z,525.00
2023-03-30T00:54:34.346Z,517.00
2023-03-30T00:55:34.341Z,515.00
2023-03-30T00:56:34.294Z,507.00
2023-03-30T00:57:34.260Z,502.00
2023-03-30T00:58:34.248Z,502.00
2023-03-30T00:59:34.228Z,503.00
2023-03-30T01:00:34.198Z,505.00
2023-03-30T01:01:34.229Z,508.00
2023-03-30T01:02:34.331Z,510.00
2023-03-30T01:03:34.216Z,513.00
2023-03-30T01:04:34.103Z,507.00
2023-03-30T01:05:34.096Z,509.00
2023-03-30T01:06:34.068Z,519.00
2023-03-30T01:07:34.056Z,518.00
2023-03-30T01:08:34.040Z,520.00
2023-03-30T01:09:34.005Z,520.00
2023-03-30T01:10:33.974Z,515.00
2023-03-30T01:11:33.949Z,519.00
2023-03-30T01:12:33.932Z,516.00
2023-03-30T01:13:33.909Z,510.00
2023-03-30T01:14:33.913Z,503.00
2023-03-30T01:15:33.909Z,501.00
2023-03-30T01:16:33.851Z,504.00
2023-03-30T01:17:33.851Z,500.00
2023-03-30T01:18:33.796Z,500.00
2023-03-30T01:19:33.789Z,501.00
2023-03-30T01:20:33.773Z,503.00
2023-03-30T01:21:33.757Z,504.00
2023-03-30T01:22:33.718Z,509.00
2023-03-30T01:23:33.699Z,509.00
2023-03-30T01:24:33.701Z,505.00
2023-03-30T01:25:33.657Z,501.00
2023-03-30T01:26:33.657Z,502.00
2023-03-30T01:27:33.634Z,505.00
2023-03-30T01:28:33.609Z,507.00
2023-03-30T01:29:33.608Z,515.00
2023-03-30T01:30:33.572Z,519.00
2023-03-30T01:31:33.589Z,522.00
2023-03-30T01:32:33.589Z,518.00
2023-03-30T01:33:33.517Z,512.00
2023-03-30T01:34:33.501Z,511.00
2023-03-30T01:35:33.568Z,513.00
2023-03-30T01:36:33.452Z,513.00
2023-03-30T01:37:33.437Z,510.00
2023-03-30T01:38:33.413Z,508.00
2023-03-30T01:39:33.394Z,510.00
2023-03-30T01:40:33.380Z,513.00
2023-03-30T01:41:33.346Z,515.00
2023-03-30T01:42:33.320Z,514.00
2023-03-30T01:43:33.326Z,507.00
2023-03-30T01:44:33.350Z,507.00
2023-03-30T01:45:33.341Z,504.00
2023-03-30T01:46:33.339Z,500.00
2023-03-30T01:47:33.371Z,508.00
2023-03-30T01:48:33.306Z,502.00
2023-03-30T01:49:33.301Z,503.00
2023-03-30T01:50:33.303Z,500.00
2023-03-30T01:51:33.288Z,508.00
2023-03-30T01:52:33.291Z,512.00
2023-03-30T01:53:33.264Z,508.00
2023-03-30T01:54:33.257Z,504.00
2023-03-30T01:55:33.234Z,499.00
2023-03-30T01:56:33.229Z,503.00
2023-03-30T01:57:33.227Z,500.00
2023-03-30T01:58:33.212Z,502.00
2023-03-30T01:59:33.211Z,505.00
2023-03-30T02:00:33.195Z,504.00
2023-03-30T02:01:33.253Z,501.00
2023-03-30T02:02:33.260Z,504.00
2023-03-30T02:03:33.309Z,510.00
2023-03-30T02:04:33.184Z,501.00
2023-03-30T02:05:33.163Z,505.00
2023-03-30T02:06:33.162Z,505.00
2023-03-30T02:07:33.133Z,504.00
2023-03-30T02:08:33.120Z,510.00
2023-03-30T02:09:33.096Z,515.00
2023-03-30T02:10:33.078Z,515.00
2023-03-30T02:11:33.065Z,507.00
2023-03-30T02:12:33.070Z,511.00
2023-03-30T02:13:33.024Z,502.00
2023-03-30T02:14:32.999Z,504.00
2023-03-30T02:15:32.991Z,507.00
2023-03-30T02:16:33.000Z,517.00
2023-03-30T02:17:32.935Z,516.00
2023-03-30T02:18:32.897Z,523.00
2023-03-30T02:19:32.884Z,528.00
2023-03-30T02:20:32.872Z,533.00
2023-03-30T02:21:32.838Z,535.00
2023-03-30T02:22:32.838Z,538.00
2023-03-30T02:23:32.806Z,535.00
2023-03-30T02:24:32.779Z,532.00
2023-03-30T02:25:32.785Z,532.00
2023-03-30T02:26:32.739Z,526.00
2023-03-30T02:27:32.728Z,525.00
2023-03-30T02:28:32.684Z,522.00
2023-03-30T02:29:32.704Z,531.00
2023-03-30T02:30:32.653Z,528.00
2023-03-30T02:31:32.652Z,526.00
2023-03-30T02:32:32.656Z,534.00
2023-03-30T02:33:32.587Z,536.00
2023-03-30T02:34:32.559Z,532.00
2023-03-30T02:35:32.571Z,531.00
2023-03-30T02:36:32.532Z,537.00
2023-03-30T02:37:32.520Z,527.00
2023-03-30T02:38:32.532Z,538.00
2023-03-30T02:39:32.490Z,536.00
2023-03-30T02:40:32.453Z,540.00
2023-03-30T02:41:32.435Z,533.00
2023-03-30T02:42:32.428Z,536.00
2023-03-30T02:43:32.406Z,542.00
2023-03-30T02:44:32.367Z,533.00
2023-03-30T02:45:32.372Z,540.00
2023-03-30T02:46:32.341Z,541.00
2023-03-30T02:47:32.440Z,541.00
2023-03-30T02:48:32.314Z,532.00
2023-03-30T02:49:32.306Z,539.00
2023-03-30T02:50:32.296Z,540.00
2023-03-30T02:51:32.269Z,538.00
2023-03-30T02:52:32.275Z,536.00
2023-03-30T02:53:32.239Z,541.00
2023-03-30T02:54:32.236Z,548.00
2023-03-30T02:55:32.231Z,548.00
2023-03-30T02:56:32.212Z,549.00
2023-03-30T02:57:32.187Z,550.00
2023-03-30T02:58:32.172Z,550.00
2023-03-30T02:59:32.152Z,551.00
2023-03-30T03:00:32.143Z,554.00
2023-03-30T03:01:32.134Z,554.00
2023-03-30T03:02:32.172Z,553.00
2023-03-30T03:03:32.208Z,556.00
2023-03-30T03:04:32.058Z,555.00
2023-03-30T03:05:32.039Z,562.00
2023-03-30T03:06:32.009Z,567.00
2023-03-30T03:07:31.991Z,564.00
2023-03-30T03:08:31.964Z,569.00
2023-03-30T03:09:31.932Z,559.00
2023-03-30T03:10:31.925Z,567.00
2023-03-30T03:11:31.894Z,573.00
2023-03-30T03:12:31.874Z,568.00
2023-03-30T03:13:31.849Z,568.00
2023-03-30T03:14:31.834Z,568.00
2023-03-30T03:15:31.803Z,564.00
2023-03-30T03:16:31.866Z,567.00
2023-03-30T03:17:31.791Z,570.00
2023-03-30T03:18:31.739Z,565.00
2023-03-30T03:19:31.724Z,574.00
2023-03-30T03:20:31.703Z,575.00
2023-03-30T03:21:31.691Z,575.00
2023-03-30T03:22:31.642Z,574.00
2023-03-30T03:23:31.614Z,575.00
2023-03-30T03:24:31.596Z,579.00
2023-03-30T03:25:31.576Z,577.00
2023-03-30T03:26:31.558Z,580.00
2023-03-30T03:27:31.567Z,576.00
2023-03-30T03:28:31.521Z,576.00
2023-03-30T03:29:31.506Z,577.00
2023-03-30T03:30:31.477Z,578.00
2023-03-30T03:31:31.510Z,581.00
2023-03-30T03:32:31.474Z,578.00
2023-03-30T03:33:31.406Z,581.00
2023-03-30T03:34:31.426Z,582.00
2023-03-30T03:35:31.505Z,579.00
2023-03-30T03:36:31.343Z,582.00
2023-03-30T03:37:31.325Z,582.00
2023-03-30T03:38:31.290Z,582.00
2023-03-30T03:39:31.286Z,581.00
2023-03-30T03:40:31.255Z,571.00
2023-03-30T03:41:31.238Z,570.00
2023-03-30T03:42:31.198Z,562.00
2023-03-30T03:43:31.183Z,562.00
2023-03-30T03:44:31.161Z,559.00
2023-03-30T03:45:31.138Z,561.00
2023-03-30T03:46:31.174Z,555.00
2023-03-30T03:47:31.109Z,560.00
2023-03-30T03:48:31.075Z,559.00
2023-03-30T03:49:31.053Z,559.00
2023-03-30T03:50:31.030Z,570.00
2023-03-30T03:51:31.006Z,565.00
2023-03-30T03:52:30.981Z,556.00
2023-03-30T03:53:30.955Z,564.00
2023-03-30T03:54:30.941Z,571.00
2023-03-30T03:55:30.914Z,569.00
2023-03-30T03:56:30.885Z,571.00
2023-03-30T03:57:30.934Z,569.00
2023-03-30T03:58:30.837Z,564.00
2023-03-30T03:59:30.811Z,565.00
2023-03-30T04:00:30.794Z,559.00
2023-03-30T04:01:30.764Z,559.00
2023-03-30T04:02:30.824Z,561.00
2023-03-30T04:03:30.828Z,564.00
2023-03-30T04:04:30.750Z,564.00
2023-03-30T04:05:30.681Z,564.00
2023-03-30T04:06:30.670Z,566.00
2023-03-30T04:07:30.650Z,566.00
2023-03-30T04:08:30.742Z,571.00
2023-03-30T04:09:30.606Z,565.00
2023-03-30T04:10:30.592Z,567.00
2023-03-30T04:11:30.557Z,572.00
2023-03-30T04:12:30.534Z,573.00
2023-03-30T04:13:30.520Z,584.00
2023-03-30T04:14:30.493Z,582.00
2023-03-30T04:15:30.459Z,586.00
2023-03-30T04:16:30.568Z,588.00
2023-03-30T04:17:30.443Z,589.00
2023-03-30T04:18:30.395Z,583.00
2023-03-30T04:19:30.384Z,586.00
2023-03-30T04:20:30.386Z,587.00
2023-03-30T04:21:30.349Z,587.00
2023-03-30T04:22:30.314Z,588.00
2023-03-30T04:23:30.301Z,590.00
2023-03-30T04:24:30.270Z,587.00
2023-03-30T04:25:30.268Z,588.00
2023-03-30T04:26:30.285Z,588.00
2023-03-30T04:27:30.205Z,592.00
2023-03-30T04:28:30.193Z,592.00
2023-03-30T04:29:30.173Z,585.00
2023-03-30T04:30:30.146Z,585.00
2023-03-30T04:31:30.155Z,585.00
2023-03-30T04:32:30.123Z,586.00
2023-03-30T04:33:30.079Z,584.00
2023-03-30T04:34:30.070Z,578.00
2023-03-30T04:35:30.104Z,579.00
2023-03-30T04:36:30.017Z,580.00
2023-03-30T04:37:29.969Z,580.00
2023-03-30T04:38:29.935Z,576.00
2023-03-30T04:39:29.926Z,574.00
2023-03-30T04:40:29.898Z,580.00
2023-03-30T04:41:29.872Z,582.00
2023-03-30T04:42:29.855Z,582.00
2023-03-30T04:43:29.829Z,582.00
2023-03-30T04:44:29.809Z,578.00
2023-03-30T04:45:29.819Z,577.00
2023-03-30T04:46:29.758Z,579.00
2023-03-30T04:47:29.754Z,582.00
2023-03-30T04:48:29.750Z,589.00
2023-03-30T04:49:29.699Z,585.00
2023-03-30T04:50:29.667Z,580.00
2023-03-30T04:51:29.649Z,586.00
2023-03-30T04:52:29.611Z,585.00
2023-03-30T04:53:29.593Z,588.00
2023-03-30T04:54:32.017Z,578.00
2023-03-30T04:55:29.541Z,579.00
2023-03-30T04:56:29.505Z,578.00
2023-03-30T04:57:29.493Z,580.00
2023-03-30T04:58:29.463Z,582.00
2023-03-30T04:59:29.461Z,584.00
2023-03-30T05:00:29.420Z,586.00
2023-03-30T05:01:29.470Z,579.00
2023-03-30T05:02:29.426Z,576.00
2023-03-30T05:03:29.501Z,578.00
2023-03-30T05:04:29.304Z,579.00
2023-03-30T05:05:29.298Z,587.00
2023-03-30T05:06:29.252Z,580.00
2023-03-30T05:07:29.222Z,580.00
2023-03-30T05:08:29.187Z,580.00
2023-03-30T05:09:29.178Z,585.00
2023-03-30T05:10:29.151Z,583.00
2023-03-30T05:11:29.120Z,583.00
2023-03-30T05:12:29.155Z,585.00
2023-03-30T05:13:29.131Z,590.00
2023-03-30T05:14:29.071Z,585.00
2023-03-30T05:15:29.065Z,588.00
2023-03-30T05:16:29.095Z,588.00
2023-03-30T05:17:29.054Z,591.00
2023-03-30T05:18:29.092Z,594.00
2023-03-30T05:19:28.999Z,580.00
2023-03-30T05:20:28.987Z,584.00
2023-03-30T05:21:28.981Z,586.00
2023-03-30T05:22:28.956Z,584.00
2023-03-30T05:23:29.013Z,583.00
2023-03-30T05:24:28.896Z,583.00
2023-03-30T05:25:28.871Z,584.00
2023-03-30T05:26:28.878Z,583.00
2023-03-30T05:27:28.832Z,586.00
2023-03-30T05:28:30.450Z,586.00
2023-03-30T05:29:28.788Z,587.00
2023-03-30T05:30:28.766Z,591.00
2023-03-30T05:31:28.752Z,591.00
2023-03-30T05:32:28.706Z,591.00
2023-03-30T05:33:28.675Z,593.00
2023-03-30T05:34:28.650Z,593.00
2023-03-30T05:35:28.632Z,595.00
2023-03-30T05:36:28.608Z,598.00
2023-03-30T05:37:28.602Z,600.00
2023-03-30T05:38:28.578Z,609.00
2023-03-30T05:39:28.530Z,629.00
2023-03-30T05:40:28.525Z,630.00
2023-03-30T05:41:28.487Z,638.00
2023-03-30T05:42:28.442Z,653.00
2023-03-30T05:43:28.418Z,656.00
2023-03-30T05:44:28.394Z,663.00
2023-03-30T05:45:28.347Z,692.00
2023-03-30T05:46:28.382Z,722.00
2023-03-30T05:47:28.362Z,739.00
2023-03-30T05:48:28.250Z,781.00
2023-03-30T05:49:28.217Z,813.00
2023-03-30T05:50:28.235Z,837.00
2023-03-30T05:51:28.159Z,865.00
2023-03-30T05:52:28.138Z,880.00
2023-03-30T05:53:28.175Z,912.00
2023-03-30T05:54:28.110Z,943.00
2023-03-30T05:55:28.026Z,945.00
2023-03-30T05:56:27.986Z,952.00
2023-03-30T05:57:28.053Z,965.00
2023-03-30T05:58:27.959Z,1008.00
2023-03-30T05:59:27.905Z,1037.00
2023-03-30T06:00:27.925Z,1055.00
2023-03-30T06:01:27.847Z,1058.00
2023-03-30T06:02:27.906Z,1057.00
2023-03-30T06:03:27.855Z,1061.00
2023-03-30T06:04:27.867Z,1075.00
2023-03-30T06:05:27.762Z,1060.00
2023-03-30T06:06:27.849Z,1075.00
2023-03-30T06:07:27.713Z,1032.00
2023-03-30T06:08:27.679Z,1035.00
2023-03-30T06:09:27.636Z,1020.00
2023-03-30T06:10:27.634Z,1034.00
2023-03-30T06:11:27.604Z,1016.00
2023-03-30T06:12:27.584Z,1009.00
2023-03-30T06:13:27.542Z,1014.00
2023-03-30T06:14:27.544Z,1039.00
2023-03-30T06:15:27.545Z,1017.00
2023-03-30T06:16:27.531Z,1017.00
2023-03-30T06:17:27.500Z,1011.00
2023-03-30T06:18:27.452Z,1012.00
2023-03-30T06:19:27.446Z,1010.00
2023-03-30T06:20:27.418Z,996.00
2023-03-30T06:21:27.380Z,1002.00
2023-03-30T06:22:28.391Z,995.00
2023-03-30T06:23:27.504Z,976.00
2023-03-30T06:24:27.487Z,980.00
2023-03-30T06:25:27.486Z,956.00
2023-03-30T06:26:27.456Z,958.00
2023-03-30T06:27:27.447Z,967.00
2023-03-30T06:28:27.413Z,995.00
2023-03-30T06:29:27.388Z,1058.00
2023-03-30T06:30:27.411Z,1129.00
2023-03-30T06:31:27.366Z,1141.00
2023-03-30T06:32:27.356Z,1143.00
2023-03-30T06:33:27.261Z,1152.00
2023-03-30T06:34:27.263Z,1175.00
2023-03-30T06:35:27.233Z,1215.00
2023-03-30T06:36:44.863Z,1274.00
2023-03-30T06:37:28.151Z,1147.00
2023-03-30T06:38:27.130Z,1170.00
2023-03-30T06:39:27.082Z,1215.00
2023-03-30T06:40:27.066Z,1287.00
2023-03-30T06:41:27.048Z,1400.00
2023-03-30T06:42:26.973Z,1422.00
2023-03-30T06:43:26.954Z,1423.00
2023-03-30T06:44:26.902Z,1238.00
2023-03-30T06:45:26.985Z,1153.00
2023-03-30T06:46:26.832Z,852.00
2023-03-30T06:47:26.821Z,743.00
2023-03-30T06:48:26.840Z,658.00
2023-03-30T06:49:26.748Z,457.00
2023-03-30T06:50:26.833Z,400.00
2023-03-30T06:51:26.677Z,423.00
2023-03-30T06:52:26.670Z,503.00
2023-03-30T06:53:26.718Z,566.00
2023-03-30T06:54:26.611Z,608.00
2023-03-30T06:55:26.577Z,664.00
2023-03-30T06:56:26.546Z,773.00
2023-03-30T06:57:26.593Z,866.00
2023-03-30T06:58:26.477Z,975.00
2023-03-30T06:59:26.460Z,1065.00
2023-03-30T07:00:26.504Z,1131.00
2023-03-30T07:01:26.473Z,1220.00
2023-03-30T07:02:26.430Z,1300.00
2023-03-30T07:03:26.427Z,1360.00
2023-03-30T07:04:26.374Z,1432.00
2023-03-30T07:05:26.281Z,1492.00
2023-03-30T07:06:26.302Z,1576.00
2023-03-30T07:07:26.298Z,1630.00
2023-03-30T07:08:26.226Z,1696.00
2023-03-30T07:09:26.197Z,1735.00
2023-03-30T07:10:26.334Z,1757.00
2023-03-30T07:11:26.197Z,1785.00
2023-03-30T07:12:26.224Z,1818.00
2023-03-30T07:13:26.229Z,1840.00
2023-03-30T07:14:26.226Z,1869.00
2023-03-30T07:15:26.491Z,1891.00
2023-03-30T07:16:26.276Z,1913.00
2023-03-30T07:17:27.042Z,1941.00
2023-03-30T07:18:26.316Z,1952.00
2023-03-30T07:19:26.319Z,1987.00
2023-03-30T07:20:26.481Z,1995.00
2023-03-30T07:21:26.351Z,2015.00
2023-03-30T07:22:26.400Z,2017.00
2023-03-30T07:23:26.521Z,2033.00
2023-03-30T07:24:26.458Z,2034.00
2023-03-30T07:25:26.464Z,2037.00
2023-03-30T07:26:26.491Z,2063.00
2023-03-30T07:27:26.531Z,2091.00
2023-03-30T07:28:26.530Z,2112.00
2023-03-30T07:29:26.791Z,2111.00
2023-03-30T07:30:26.524Z,2113.00
2023-03-30T07:31:26.633Z,2128.00
2023-03-30T07:32:26.625Z,2128.00
2023-03-30T07:33:26.732Z,2143.00
2023-03-30T07:34:26.577Z,2138.00
2023-03-30T07:35:26.619Z,2150.00
2023-03-30T07:36:26.666Z,2163.00
2023-03-30T07:37:26.691Z,2158.00
2023-03-30T07:38:26.719Z,2151.00
2023-03-30T07:39:26.749Z,2156.00
2023-03-30T07:40:26.833Z,2148.00
2023-03-30T07:41:26.827Z,2154.00
2023-03-30T07:42:26.854Z,2153.00
2023-03-30T07:43:26.901Z,2156.00
2023-03-30T07:44:27.011Z,2130.00
2023-03-30T07:45:26.935Z,2043.00
2023-03-30T07:46:26.998Z,1982.00
2023-03-30T07:47:26.924Z,1951.00
2023-03-30T07:48:26.943Z,1837.00
2023-03-30T07:49:26.947Z,1864.00
2023-03-30T07:50:26.984Z,1765.00
2023-03-30T07:51:28.040Z,1765.00
2023-03-30T07:52:27.114Z,1736.00
2023-03-30T07:53:27.113Z,1654.00
2023-03-30T07:54:27.170Z,1678.00
2023-03-30T07:55:27.177Z,1664.00
2023-03-30T07:56:27.198Z,1682.00
2023-03-30T07:57:27.293Z,1624.00
2023-03-30T07:58:27.268Z,1590.00
2023-03-30T07:59:27.334Z,1440.00
2023-03-30T08:00:27.362Z,1270.00
2023-03-30T08:01:27.456Z,1343.00
2023-03-30T08:02:27.518Z,1373.00
2023-03-30T08:03:27.614Z,1281.00
2023-03-30T08:04:27.619Z,1285.00
2023-03-30T08:05:27.537Z,1218.00
2023-03-30T08:06:27.567Z,1213.00
2023-03-30T08:07:27.563Z,1161.00
2023-03-30T08:08:27.552Z,1177.00
2023-03-30T08:09:27.619Z,723.00
2023-03-30T08:10:27.628Z,710.00
2023-03-30T08:11:27.632Z,848.00
2023-03-30T08:12:27.679Z,941.00
2023-03-30T08:13:27.700Z,635.00
2023-03-30T08:14:27.705Z,649.00
2023-03-30T08:15:27.724Z,652.00
2023-03-30T08:16:27.703Z,610.00
2023-03-30T08:17:27.712Z,666.00
2023-03-30T08:18:29.138Z,774.00
2023-03-30T08:19:27.608Z,867.00
2023-03-30T08:20:27.688Z,934.00
2023-03-30T08:21:27.660Z,933.00
2023-03-30T08:22:27.684Z,901.00
2023-03-30T08:23:27.728Z,892.00
2023-03-30T08:24:27.779Z,923.00
2023-03-30T08:25:27.796Z,987.00
2023-03-30T08:26:27.855Z,1023.00
2023-03-30T08:27:27.912Z,891.00
2023-03-30T08:28:27.926Z,925.00
2023-03-30T08:29:27.964Z,932.00
2023-03-30T08:30:28.002Z,739.00
2023-03-30T08:31:28.864Z,644.00
2023-03-30T08:32:28.130Z,672.00
2023-03-30T08:33:28.132Z,546.00
2023-03-30T08:34:28.178Z,468.00
2023-03-30T08:35:28.244Z,500.00
2023-03-30T08:36:28.240Z,433.00
2023-03-30T08:37:28.242Z,500.00
2023-03-30T08:38:28.203Z,467.00
2023-03-30T08:39:28.158Z,422.00
2023-03-30T08:40:28.143Z,400.00
2023-03-30T08:41:28.138Z,400.00
2023-03-30T08:42:28.127Z,400.00
2023-03-30T08:43:28.109Z,400.00
2023-03-30T08:44:28.121Z,400.00
2023-03-30T08:45:28.175Z,400.00
2023-03-30T08:46:28.215Z,417.00
2023-03-30T08:47:28.102Z,496.00
2023-03-30T08:48:28.089Z,496.00
2023-03-30T08:49:28.032Z,420.00
2023-03-30T08:50:28.060Z,532.00
2023-03-30T08:51:28.030Z,642.00
2023-03-30T08:52:27.992Z,589.00
2023-03-30T08:53:27.980Z,734.00
2023-03-30T08:54:27.959Z,899.00
2023-03-30T08:55:27.932Z,903.00
2023-03-30T08:56:27.923Z,905.00
2023-03-30T08:57:27.957Z,937.00
2023-03-30T08:58:27.899Z,900.00
2023-03-30T08:59:27.889Z,910.00
2023-03-30T09:00:27.836Z,684.00
2023-03-30T09:01:27.829Z,809.00
2023-03-30T09:02:27.835Z,791.00
2023-03-30T09:03:27.780Z,873.00
2023-03-30T09:04:27.747Z,1132.00
2023-03-30T09:05:27.756Z,1227.00
2023-03-30T09:06:27.703Z,1308.00
2023-03-30T09:07:27.687Z,1386.00
2023-03-30T09:08:27.650Z,1288.00
2023-03-30T09:09:27.653Z,1130.00
2023-03-30T09:10:27.643Z,1166.00
2023-03-30T09:11:27.640Z,1206.00
2023-03-30T09:12:27.688Z,1349.00
2023-03-30T09:13:27.724Z,1448.00
2023-03-30T09:14:27.699Z,1283.00
2023-03-30T09:15:28.492Z,1322.00
2023-03-30T09:16:27.838Z,949.00
2023-03-30T09:17:28.326Z,947.00
2023-03-30T09:18:27.730Z,903.00
2023-03-30T09:19:27.677Z,938.00
2023-03-30T09:20:27.781Z,938.00
2023-03-30T09:21:27.588Z,745.00
2023-03-30T09:22:27.495Z,618.00
2023-03-30T09:23:27.496Z,650.00
2023-03-30T09:24:27.492Z,604.00
2023-03-30T09:25:27.428Z,565.00
2023-03-30T09:26:27.412Z,594.00
2023-03-30T09:27:27.401Z,521.00
2023-03-30T09:28:28.324Z,446.00
2023-03-30T09:29:27.469Z,490.00
2023-03-30T09:30:27.336Z,501.00
2023-03-30T09:31:27.347Z,507.00
2023-03-30T09:32:27.321Z,460.00
2023-03-30T09:33:27.309Z,479.00
2023-03-30T09:34:27.328Z,500.00
2023-03-30T09:35:27.314Z,510.00
2023-03-30T09:36:27.408Z,516.00
2023-03-30T09:37:27.460Z,555.00
2023-03-30T09:38:27.428Z,560.00
2023-03-30T09:39:27.440Z,569.00
2023-03-30T09:40:27.436Z,645.00
2023-03-30T09:41:27.425Z,722.00
2023-03-30T09:42:27.463Z,808.00
2023-03-30T09:43:27.489Z,918.00
2023-03-30T09:44:27.506Z,991.00
2023-03-30T09:45:27.598Z,1028.00
2023-03-30T09:46:27.665Z,1034.00
2023-03-30T09:47:27.633Z,1115.00
2023-03-30T09:48:27.543Z,1110.00
2023-03-30T09:49:27.577Z,1077.00
2023-03-30T09:50:27.607Z,1121.00
2023-03-30T09:51:29.223Z,1209.00
2023-03-30T09:52:27.583Z,1288.00
2023-03-30T09:53:27.580Z,1259.00
2023-03-30T09:54:27.580Z,1257.00
2023-03-30T09:55:27.524Z,1199.00
2023-03-30T09:56:27.517Z,1251.00
2023-03-30T09:57:27.526Z,1242.00
2023-03-30T09:58:27.481Z,1246.00
2023-03-30T09:59:27.512Z,1142.00
2023-03-30T10:00:27.464Z,1187.00
2023-03-30T10:01:27.492Z,1200.00
2023-03-30T10:02:27.479Z,1211.00
2023-03-30T10:03:27.609Z,1252.00
2023-03-30T10:04:27.379Z,1270.00
2023-03-30T10:05:27.356Z,1304.00
2023-03-30T10:06:27.337Z,1265.00
2023-03-30T10:07:27.332Z,1177.00
2023-03-30T10:08:27.300Z,1176.00
2023-03-30T10:09:27.268Z,1175.00
2023-03-30T10:10:27.266Z,1172.00
2023-03-30T10:11:27.233Z,1131.00
2023-03-30T10:12:27.231Z,1106.00
2023-03-30T10:13:27.202Z,1130.00
2023-03-30T10:14:28.688Z,1132.00
2023-03-30T10:15:27.178Z,1140.00
2023-03-30T10:16:27.207Z,1167.00
2023-03-30T10:17:27.276Z,1220.00
2023-03-30T10:18:27.109Z,1333.00
2023-03-30T10:19:27.081Z,1316.00
2023-03-30T10:20:27.086Z,1323.00
2023-03-30T10:21:27.060Z,1341.00
2023-03-30T10:22:27.014Z,1341.00
2023-03-30T10:23:27.019Z,1347.00
2023-03-30T10:24:26.984Z,1337.00
2023-03-30T10:25:26.959Z,1320.00
2023-03-30T10:26:26.957Z,1307.00
2023-03-30T10:27:26.928Z,1289.00
2023-03-30T10:28:26.913Z,911.00
2023-03-30T10:29:26.856Z,1057.00
2023-03-30T10:30:26.818Z,1026.00
2023-03-30T10:31:28.079Z,1054.00
2023-03-30T10:32:26.805Z,1087.00
2023-03-30T10:33:26.758Z,1224.00
2023-03-30T10:34:26.830Z,1269.00
2023-03-30T10:35:26.744Z,962.00
2023-03-30T10:36:26.771Z,927.00
2023-03-30T10:37:26.701Z,1090.00
2023-03-30T10:38:26.763Z,1126.00
2023-03-30T10:39:26.659Z,1220.00
2023-03-30T10:40:26.648Z,944.00
2023-03-30T10:41:26.612Z,909.00
2023-03-30T10:42:26.599Z,961.00
2023-03-30T10:43:26.762Z,1010.00
2023-03-30T10:44:26.579Z,1014.00
2023-03-30T10:45:26.581Z,1016.00
2023-03-30T10:46:26.697Z,1049.00
2023-03-30T10:47:26.686Z,1128.00
2023-03-30T10:48:26.524Z,1271.00
2023-03-30T10:49:26.481Z,1493.00
2023-03-30T10:50:26.460Z,1614.00
2023-03-30T10:51:26.442Z,1671.00
2023-03-30T10:52:26.437Z,1740.00
2023-03-30T10:53:26.382Z,1754.00
2023-03-30T10:54:26.358Z,1814.00
2023-03-30T10:55:26.363Z,1816.00
2023-03-30T10:56:26.326Z,1826.00
2023-03-30T10:57:26.389Z,1851.00
2023-03-30T10:58:26.313Z,1908.00
2023-03-30T10:59:26.259Z,1820.00
2023-03-30T11:00:26.241Z,1821.00
2023-03-30T11:01:26.245Z,1849.00
2023-03-30T11:02:26.276Z,1907.00
2023-03-30T11:03:26.277Z,2021.00
2023-03-30T11:04:26.266Z,2179.00
2023-03-30T11:05:26.120Z,2190.00
2023-03-30T11:06:26.088Z,2198.00
2023-03-30T11:07:26.084Z,2201.00
2023-03-30T11:08:26.026Z,2207.00
2023-03-30T11:09:26.063Z,2203.00
2023-03-30T11:10:25.985Z,2197.00
2023-03-30T11:11:25.956Z,2221.00
2023-03-30T11:12:25.996Z,2225.00
2023-03-30T11:13:25.923Z,2252.00
2023-03-30T11:14:25.879Z,2256.00
2023-03-30T11:15:25.867Z,2275.00
2023-03-30T11:16:25.869Z,2297.00
2023-03-30T11:17:25.844Z,2306.00
2023-03-30T11:18:25.777Z,2331.00
2023-03-30T11:19:25.782Z,2333.00
2023-03-30T11:20:25.742Z,2337.00
2023-03-30T11:21:25.713Z,2333.00
2023-03-30T11:22:25.716Z,2349.00
2023-03-30T11:23:25.747Z,2363.00
2023-03-30T11:24:25.721Z,2357.00
2023-03-30T11:25:25.746Z,2357.00
2023-03-30T11:26:25.669Z,2352.00
2023-03-30T11:27:25.722Z,2349.00
2023-03-30T11:28:25.682Z,2359.00
2023-03-30T11:29:25.714Z,2376.00
2023-03-30T11:30:25.743Z,2364.00
2023-03-30T11:31:25.684Z,2378.00
2023-03-30T11:32:25.762Z,2382.00
2023-03-30T11:33:25.704Z,2390.00
2023-03-30T11:34:25.840Z,2405.00
2023-03-30T11:35:25.756Z,2425.00
2023-03-30T11:36:25.832Z,2437.00
2023-03-30T11:37:25.897Z,2430.00
2023-03-30T11:38:25.877Z,2414.00
2023-03-30T11:39:32.248Z,2424.00
2023-03-30T11:40:27.095Z,2425.00
2023-03-30T11:41:25.860Z,2425.00
2023-03-30T11:42:25.839Z,2425.00
2023-03-30T11:43:25.822Z,2427.00
2023-03-30T11:44:25.787Z,2432.00
2023-03-30T11:45:25.775Z,2422.00
2023-03-30T11:46:25.754Z,2435.00
2023-03-30T11:47:25.754Z,2433.00
2023-03-30T11:48:25.702Z,2415.00
2023-03-30T11:49:25.678Z,2416.00
2023-03-30T11:50:25.651Z,2400.00
2023-03-30T11:51:25.672Z,2397.00
2023-03-30T11:52:25.708Z,2390.00
2023-03-30T11:53:25.722Z,2389.00
2023-03-30T11:54:25.757Z,2381.00
2023-03-30T11:55:25.859Z,2396.00
2023-03-30T11:56:26.235Z,2383.00
2023-03-30T11:57:25.913Z,2375.00
2023-03-30T11:58:25.901Z,2364.00
2023-03-30T11:59:25.935Z,2358.00
2023-03-30T12:00:25.891Z,2359.00
2023-03-30T12:01:25.942Z,2360.00
2023-03-30T12:02:25.924Z,2366.00
2023-03-30T12:03:25.916Z,2378.00
2023-03-30T12:04:25.838Z,2392.00
2023-03-30T12:05:25.764Z,2414.00
2023-03-30T12:06:25.730Z,2378.00
2023-03-30T12:07:25.699Z,2369.00
2023-03-30T12:08:25.664Z,2381.00
2023-03-30T12:09:25.666Z,2379.00
2023-03-30T12:10:25.673Z,2386.00
2023-03-30T12:11:25.702Z,2390.00
2023-03-30T12:12:25.741Z,2395.00
2023-03-30T12:13:25.757Z,2372.00
2023-03-30T12:14:25.791Z,2359.00
2023-03-30T12:15:25.828Z,2361.00
2023-03-30T12:16:28.203Z,2365.00
2023-03-30T12:17:26.162Z,2381.00
2023-03-30T12:18:26.005Z,2400.00
2023-03-30T12:19:26.055Z,2386.00